Weather at Jacobs Well Airport

Public forecast

Using degrees Celsius for public forecast. Weather courtesy of forecast.io.

Closest aviation weather report (METAR) to Jacobs Well Airport

Closest report is Brisbane International Airport, 25.5 nm (47.2 km) NNW. Retrieved 2020/11/27 16:30 UTC (17 minutes ago):

YBBN 271630Z 06005KT 9999 SCT034 21/16 Q1016

Closest aviation forecast (TAF) to Jacobs Well Airport

Closest forecast is Brisbane International Airport, 25.5 nm (47.2 km) NNW. Retrieved 2020/11/27 15:48 UTC (59 minutes ago):

TAF YBBN 271416Z 2715/2818 07007KT 9999 SCT030 FM271800 20006KT 9999 SCT030 FM272200 04010KT 9999 FEW035 FM280200 03013KT CAVOK FM281100 35008KT 9999 FEW020